Time;durP1;ratioP1;P1;durP2;ratioP2;P2;SDS_P1;SDS_P2;PMS_P1;PMS_P2;Temp;Humidity;BMP_temperature;BMP_pressure;BME280_temperature;BME280_humidity;BME280_pressure;Samples;Min_cycle;Max_cycle;Signal;HPM_P1;HPM_P2
2021/01/02 00:00:34;;;;;;;6;1.9;;;;;;;2.32;72.32227;929.6185;;;;
2021/01/02 00:03:00;;;;;;;3.4;1.7;;;;;;;2.25;72.77051;929.5894;;;;
2021/01/02 00:05:25;;;;;;;3.6;1.5;;;;;;;2.29;73.10156;929.5731;;;;
2021/01/02 00:07:52;;;;;;;5.1;2.3;;;;;;;2.33;73.35547;929.5505;;;;
2021/01/02 00:10:15;;;;;;;3.7;1.6;;;;;;;2.29;73.48242;929.5786;;;;
2021/01/02 00:12:41;;;;;;;3.1;1.6;;;;;;;2.33;73.41211;929.5639;;;;
2021/01/02 00:15:06;;;;;;;3.8;1.6;;;;;;;2.34;74.00684;929.55;;;;
2021/01/02 00:17:31;;;;;;;3.6;1.9;;;;;;;2.26;73.68848;929.5449;;;;
2021/01/02 00:19:56;;;;;;;3;2;;;;;;;2.27;73.51465;929.5767;;;;
2021/01/02 00:22:21;;;;;;;4.4;2;;;;;;;2.37;72.82324;929.5916;;;;
2021/01/02 00:24:48;;;;;;;3.5;2.1;;;;;;;2.41;72.74121;929.5906;;;;
2021/01/02 00:27:13;;;;;;;5.4;2.8;;;;;;;2.34;73.09863;929.5908;;;;
2021/01/02 00:29:38;;;;;;;4.4;2.4;;;;;;;2.4;72.63867;929.6002;;;;
2021/01/02 00:32:03;;;;;;;5.3;3.1;;;;;;;2.35;72.40527;929.6115;;;;
2021/01/02 00:34:28;;;;;;;4.4;2.6;;;;;;;2.24;73.3623;929.4989;;;;
2021/01/02 00:36:56;;;;;;;6.2;2.8;;;;;;;2.3;73.09375;929.6064;;;;
2021/01/02 00:39:21;;;;;;;5.5;3;;;;;;;2.27;73.32227;929.6008;;;;
2021/01/02 00:41:46;;;;;;;4.3;2.5;;;;;;;2.32;72.88184;929.6069;;;;
2021/01/02 00:44:14;;;;;;;3.9;2.4;;;;;;;2.3;73.03711;929.6567;;;;
2021/01/02 00:46:37;;;;;;;3.9;2.6;;;;;;;2.3;73.06934;929.6786;;;;
2021/01/02 00:49:02;;;;;;;4.5;1.7;;;;;;;2.3;73.40527;929.6989;;;;
2021/01/02 00:51:30;;;;;;;5.7;3;;;;;;;2.39;73.12793;929.7225;;;;
2021/01/02 00:53:55;;;;;;;5.4;3.1;;;;;;;2.41;73.09961;929.6873;;;;
2021/01/02 00:56:20;;;;;;;3.7;2.8;;;;;;;2.34;73.83887;929.6412;;;;
2021/01/02 00:58:47;;;;;;;3.9;2.7;;;;;;;2.26;74.18359;929.7216;;;;
2021/01/02 01:01:14;;;;;;;5.5;3;;;;;;;2.31;73.94434;929.7125;;;;
2021/01/02 01:03:39;;;;;;;7.1;3.3;;;;;;;2.24;74.55957;929.6958;;;;
2021/01/02 01:06:06;;;;;;;4.7;2.7;;;;;;;2.19;74.46191;929.7625;;;;
2021/01/02 01:08:34;;;;;;;2.2;1.6;;;;;;;2.32;73.85645;929.8526;;;;
2021/01/02 01:10:59;;;;;;;6.5;3;;;;;;;2.39;73.72363;929.8192;;;;
2021/01/02 01:13:24;;;;;;;6.5;2.9;;;;;;;2.46;73.31055;929.9445;;;;
2021/01/02 01:15:49;;;;;;;4.3;2.4;;;;;;;2.49;72.6543;929.9422;;;;
2021/01/02 01:18:18;;;;;;;3.2;2.2;;;;;;;2.47;72.81934;929.9535;;;;
2021/01/02 01:20:43;;;;;;;4.4;2.3;;;;;;;2.48;73.06836;929.9444;;;;
2021/01/02 01:23:08;;;;;;;3.4;2.1;;;;;;;2.49;72.67676;929.9972;;;;
2021/01/02 01:25:33;;;;;;;4.4;2.8;;;;;;;2.49;71.87012;930.0145;;;;
2021/01/02 01:27:58;;;;;;;3.5;2.1;;;;;;;2.39;72.75977;929.8766;;;;
2021/01/02 01:30:26;;;;;;;4.4;2.6;;;;;;;2.25;73.30859;929.9819;;;;
2021/01/02 01:32:52;;;;;;;2.9;1.9;;;;;;;2.32;73.34277;929.9651;;;;
2021/01/02 01:35:20;;;;;;;3.1;1.9;;;;;;;2.14;74.25098;929.9684;;;;
2021/01/02 01:37:47;;;;;;;5.8;2.2;;;;;;;2.3;74.22363;929.9802;;;;
2021/01/02 01:40:13;;;;;;;4.2;2.8;;;;;;;2.38;73.35254;929.991;;;;
2021/01/02 01:42:38;;;;;;;5;2.5;;;;;;;2.27;72.5957;929.9473;;;;
2021/01/02 01:46:37;;;;;;;3.9;2.3;;;;;;;2.37;72.68945;929.9177;;;;
2021/01/02 01:49:05;;;;;;;2.8;2.1;;;;;;;2.39;72.56836;929.9205;;;;
2021/01/02 01:51:30;;;;;;;6.9;2.8;;;;;;;2.22;73.50488;929.9011;;;;
2021/01/02 01:53:55;;;;;;;6.9;3.4;;;;;;;2.18;73.73242;929.8698;;;;
2021/01/02 01:56:20;;;;;;;3;2.4;;;;;;;1.96;74.71289;929.8873;;;;
2021/01/02 01:58:46;;;;;;;2.3;2.1;;;;;;;1.83;76.02051;929.8499;;;;
2021/01/02 02:01:11;;;;;;;4.8;2.7;;;;;;;1.69;77.33789;929.8417;;;;
2021/01/02 02:03:36;;;;;;;3;2.7;;;;;;;1.66;77.9248;929.7827;;;;
2021/01/02 02:06:01;;;;;;;4.3;3.3;;;;;;;1.6;78.70801;929.8875;;;;
2021/01/02 02:08:30;;;;;;;6.4;3.4;;;;;;;1.88;78.07617;929.9391;;;;
2021/01/02 02:10:59;;;;;;;6.4;3.1;;;;;;;2.14;77.25293;929.9161;;;;
2021/01/02 02:13:26;;;;;;;8.2;5.1;;;;;;;2.16;77.38867;929.8834;;;;
2021/01/02 02:15:51;;;;;;;7.4;4.6;;;;;;;1.92;78.76758;929.8697;;;;
2021/01/02 02:18:16;;;;;;;5.9;3.5;;;;;;;1.98;78.8125;929.9805;;;;
2021/01/02 02:20:42;;;;;;;7.4;4;;;;;;;2.04;78.71094;929.9398;;;;
2021/01/02 02:23:07;;;;;;;9.7;4.3;;;;;;;1.91;79.29297;929.9919;;;;
2021/01/02 02:25:37;;;;;;;8.6;3.7;;;;;;;1.83;79.63379;929.937;;;;
2021/01/02 02:28:03;;;;;;;4.4;3.2;;;;;;;2.15;78.76563;929.9235;;;;
2021/01/02 02:30:32;;;;;;;3.9;3;;;;;;;2.24;78.17773;929.923;;;;
2021/01/02 02:33:00;;;;;;;8.6;4.3;;;;;;;2.1;78.59961;929.9997;;;;
2021/01/02 02:35:25;;;;;;;7.9;4.4;;;;;;;2.08;78.35938;929.8632;;;;
2021/01/02 02:37:54;;;;;;;7.3;4.1;;;;;;;2.24;78.01953;929.9401;;;;
2021/01/02 02:40:19;;;;;;;7.7;4.3;;;;;;;2.37;77.70703;929.9702;;;;
2021/01/02 02:42:48;;;;;;;6.3;4.4;;;;;;;2.4;77.36621;930.0173;;;;
2021/01/02 02:45:13;;;;;;;6.5;4.2;;;;;;;2.22;77.76953;930.0023;;;;
2021/01/02 02:47:38;;;;;;;5;3.8;;;;;;;2.32;77.51953;930.0278;;;;
2021/01/02 02:50:03;;;;;;;5.5;2.5;;;;;;;2.23;77.4248;929.9956;;;;
2021/01/02 02:52:30;;;;;;;6.4;3.3;;;;;;;2.33;77.22949;929.9659;;;;
2021/01/02 02:54:55;;;;;;;3.5;2.4;;;;;;;2.39;77.0752;929.9057;;;;
2021/01/02 02:57:20;;;;;;;5.8;3.1;;;;;;;2.46;76.46973;929.873;;;;
2021/01/02 02:59:48;;;;;;;5.5;3.1;;;;;;;2.36;76.00391;929.8515;;;;
2021/01/02 03:02:13;;;;;;;4.7;3.3;;;;;;;2.03;77.1084;929.7819;;;;
2021/01/02 03:04:39;;;;;;;3.5;1.9;;;;;;;2.05;77.28125;929.8044;;;;
2021/01/02 03:07:05;;;;;;;3.4;2.6;;;;;;;2.21;76.57031;929.681;;;;
2021/01/02 03:09:31;;;;;;;5.2;2.6;;;;;;;2.28;75.6875;929.6576;;;;
2021/01/02 03:11:57;;;;;;;5.8;3.2;;;;;;;2.26;75.42676;929.6612;;;;
2021/01/02 03:14:23;;;;;;;5.6;3;;;;;;;2.29;76.21484;929.6752;;;;
2021/01/02 03:16:48;;;;;;;4.3;2.5;;;;;;;2.37;76.43164;929.7102;;;;
2021/01/02 03:19:14;;;;;;;5.2;3.2;;;;;;;2.21;76.72656;929.6432;;;;
2021/01/02 03:21:39;;;;;;;5.9;3.6;;;;;;;2.28;76.72852;929.635;;;;
2021/01/02 03:24:05;;;;;;;4;3.1;;;;;;;2.33;76.37988;929.6575;;;;
2021/01/02 03:26:31;;;;;;;4.7;2.8;;;;;;;2.24;76.53027;929.5843;;;;
2021/01/02 03:28:57;;;;;;;5.6;3.1;;;;;;;2.24;76.54102;929.7469;;;;
2021/01/02 03:31:22;;;;;;;4.6;2.3;;;;;;;2.28;76.13477;929.6869;;;;
2021/01/02 03:33:49;;;;;;;5.4;2.6;;;;;;;2.04;76.7627;929.6605;;;;
2021/01/02 03:36:14;;;;;;;3.8;1.8;;;;;;;1.93;77.17969;929.6422;;;;
2021/01/02 03:38:41;;;;;;;3.7;2;;;;;;;1.99;77.0459;929.717;;;;
2021/01/02 03:41:06;;;;;;;3;2;;;;;;;1.69;78.2998;929.6581;;;;
2021/01/02 03:43:31;;;;;;;1.9;1.7;;;;;;;1.89;78.11328;929.62;;;;
2021/01/02 03:45:57;;;;;;;3;2.2;;;;;;;1.91;77.74902;929.6136;;;;
2021/01/02 03:48:22;;;;;;;3.9;2.5;;;;;;;2.07;76.87988;929.6525;;;;
2021/01/02 03:50:49;;;;;;;5.1;2.6;;;;;;;2.2;74.39746;929.6753;;;;
2021/01/02 03:53:14;;;;;;;2.5;1.4;;;;;;;2.24;73.82031;929.6778;;;;
2021/01/02 03:55:41;;;;;;;3.1;2;;;;;;;2.31;73.58594;929.6868;;;;
2021/01/02 03:58:07;;;;;;;4.1;2.6;;;;;;;2.38;73.16211;929.6547;;;;
2021/01/02 04:02:32;;;;;;;2.8;1.8;;;;;;;2.44;73.15039;929.6057;;;;
2021/01/02 04:04:59;;;;;;;5.4;2.2;;;;;;;2.49;72.95703;929.613;;;;
2021/01/02 04:07:24;;;;;;;4.5;2.2;;;;;;;2.42;73.48145;929.561;;;;
2021/01/02 04:09:51;;;;;;;3.4;1.9;;;;;;;2.22;74.18848;929.5463;;;;
2021/01/02 04:12:16;;;;;;;3.6;2.4;;;;;;;2.22;74.14355;929.5463;;;;
2021/01/02 04:14:42;;;;;;;3.7;2.1;;;;;;;2.18;74.42676;929.5856;;;;
2021/01/02 04:17:07;;;;;;;5.3;2.6;;;;;;;2.23;74.45703;929.5198;;;;
2021/01/02 04:19:33;;;;;;;4;2.4;;;;;;;2.33;74.50781;929.5999;;;;
2021/01/02 04:21:58;;;;;;;6.5;2.5;;;;;;;2.3;75.06445;929.6119;;;;
2021/01/02 04:24:24;;;;;;;5.4;2.2;;;;;;;2.35;74.60059;929.5863;;;;
2021/01/02 04:26:49;;;;;;;3.3;2.4;;;;;;;2.37;74.31543;929.5737;;;;
2021/01/02 04:29:14;;;;;;;5.3;2.6;;;;;;;2.37;74.15723;929.6309;;;;
2021/01/02 04:31:40;;;;;;;5.8;2.8;;;;;;;2.34;73.95117;929.6836;;;;
2021/01/02 04:34:06;;;;;;;6.6;2.7;;;;;;;2.19;74.27148;929.6629;;;;
2021/01/02 04:36:31;;;;;;;5;2.6;;;;;;;2.2;75.19238;929.671;;;;
2021/01/02 04:38:57;;;;;;;3.6;2.2;;;;;;;2.19;75.53516;929.6565;;;;
2021/01/02 04:41:22;;;;;;;4.4;2.6;;;;;;;2.08;75.94238;929.6797;;;;
2021/01/02 04:43:48;;;;;;;3.3;1.5;;;;;;;2;75.30176;929.6536;;;;
2021/01/02 04:46:13;;;;;;;2.5;1.7;;;;;;;1.83;76.06738;929.7111;;;;
2021/01/02 04:48:40;;;;;;;2.9;1.9;;;;;;;1.89;76.43262;929.6717;;;;
2021/01/02 04:51:05;;;;;;;2.8;2.2;;;;;;;2.03;76.29102;929.7332;;;;
2021/01/02 04:53:32;;;;;;;4.3;2.7;;;;;;;2.11;76.15039;929.6342;;;;
2021/01/02 04:55:57;;;;;;;5.6;3;;;;;;;2.15;76.15723;929.654;;;;
2021/01/02 04:58:25;;;;;;;5.1;3;;;;;;;2.19;76.35449;929.6448;;;;
2021/01/02 05:00:52;;;;;;;4.9;2.9;;;;;;;2.12;76.57813;929.6038;;;;
2021/01/02 05:03:17;;;;;;;4.3;2.6;;;;;;;2.2;75.47266;929.6758;;;;
2021/01/02 05:05:47;;;;;;;5.2;2.7;;;;;;;2.22;75.33008;929.5549;;;;
2021/01/02 05:08:16;;;;;;;4.1;2.9;;;;;;;2.19;75.3125;929.5585;;;;
2021/01/02 05:10:41;;;;;;;2.6;1.7;;;;;;;2.22;75.44238;929.6021;;;;
2021/01/02 05:13:07;;;;;;;3.5;2.3;;;;;;;2.27;75.57324;929.5868;;;;
2021/01/02 05:15:32;;;;;;;4.1;2.8;;;;;;;2.34;75.37402;929.6255;;;;
2021/01/02 05:17:59;;;;;;;4.5;2.5;;;;;;;2.38;74.5625;929.7081;;;;
2021/01/02 05:20:28;;;;;;;3.2;1.8;;;;;;;2.17;72.72266;929.7229;;;;
2021/01/02 05:22:54;;;;;;;5.2;2.7;;;;;;;2.28;74.24219;929.6138;;;;
2021/01/02 05:25:19;;;;;;;3.6;1.9;;;;;;;2.01;73.5791;929.7539;;;;
2021/01/02 05:27:44;;;;;;;2.1;1.8;;;;;;;2.12;73.39844;929.6847;;;;
2021/01/02 05:30:09;;;;;;;3.2;1.8;;;;;;;2.18;72.52344;929.6964;;;;
2021/01/02 05:32:34;;;;;;;5.3;1.9;;;;;;;2.12;71.63867;929.6727;;;;
2021/01/02 05:34:59;;;;;;;2.1;1.4;;;;;;;2.05;72.70117;929.7195;;;;
2021/01/02 05:37:24;;;;;;;1.3;1.2;;;;;;;2.16;71.1543;929.7227;;;;
2021/01/02 05:39:50;;;;;;;1.8;1.3;;;;;;;2.19;71.50391;929.6408;;;;
2021/01/02 05:42:16;;;;;;;2.2;1.4;;;;;;;2.02;71.32031;929.7759;;;;
2021/01/02 05:44:41;;;;;;;2.5;1.7;;;;;;;2.12;71.46094;929.7797;;;;
2021/01/02 05:47:09;;;;;;;3.1;1.9;;;;;;;2.1;71.88184;929.8192;;;;
2021/01/02 05:49:34;;;;;;;2.7;1.2;;;;;;;1.89;72.03613;929.8428;;;;
2021/01/02 05:51:59;;;;;;;2.1;1.7;;;;;;;1.94;71.57617;929.7918;;;;
2021/01/02 05:54:24;;;;;;;2.9;1.6;;;;;;;1.93;71.41797;929.7821;;;;
2021/01/02 05:56:49;;;;;;;4.5;1.8;;;;;;;1.96;70.75;929.8667;;;;
2021/01/02 05:59:15;;;;;;;1.8;1.2;;;;;;;1.98;69.81445;929.8337;;;;
2021/01/02 06:01:40;;;;;;;2.7;1.4;;;;;;;1.79;70.52148;929.8492;;;;
2021/01/02 06:04:05;;;;;;;3.6;1.5;;;;;;;1.92;71.21387;929.7503;;;;
2021/01/02 06:06:30;;;;;;;1.1;1;;;;;;;1.89;71.24316;929.8005;;;;
2021/01/02 06:08:56;;;;;;;1.9;1.2;;;;;;;2.02;71.15332;929.8013;;;;
2021/01/02 06:11:21;;;;;;;2.8;1.3;;;;;;;2.04;70.63086;929.7916;;;;
2021/01/02 06:13:46;;;;;;;3.9;1.6;;;;;;;2.05;70.58691;929.8013;;;;
2021/01/02 06:16:13;;;;;;;1.9;1.5;;;;;;;1.99;70.72266;929.8973;;;;
2021/01/02 06:18:38;;;;;;;1;0.9;;;;;;;1.9;70.69629;929.8692;;;;
2021/01/02 06:21:04;;;;;;;1.5;1.1;;;;;;;1.78;72.24121;929.7932;;;;
2021/01/02 06:23:29;;;;;;;5.9;1.7;;;;;;;1.54;71.82129;929.8786;;;;
2021/01/02 06:25:55;;;;;;;3;1.7;;;;;;;1.25;72.45313;929.9215;;;;
2021/01/02 06:28:20;;;;;;;1.2;1.1;;;;;;;1.48;72.15625;929.8925;;;;
2021/01/02 06:30:47;;;;;;;2.1;0.9;;;;;;;1.67;71.78613;929.8945;;;;
2021/01/02 06:33:13;;;;;;;1.3;1.2;;;;;;;1.66;71.20313;929.7946;;;;
2021/01/02 06:35:38;;;;;;;1.2;1.1;;;;;;;1.67;71.2832;929.9698;;;;
2021/01/02 06:38:03;;;;;;;1.8;1.4;;;;;;;1.49;71.13086;930.0059;;;;
2021/01/02 06:40:28;;;;;;;2.2;1.3;;;;;;;1.4;72.31055;929.9956;;;;
2021/01/02 06:42:53;;;;;;;3.2;1.3;;;;;;;1.25;72.72168;930.0447;;;;
2021/01/02 06:45:18;;;;;;;1.2;1.1;;;;;;;1.1;72.76172;929.9777;;;;
2021/01/02 06:47:44;;;;;;;1.4;1.2;;;;;;;0.8;73.57031;929.9674;;;;
2021/01/02 06:50:15;;;;;;;1.6;1.3;;;;;;;1.16;73.03027;929.8794;;;;
2021/01/02 06:52:42;;;;;;;1;0.9;;;;;;;1.28;72;929.9208;;;;
2021/01/02 06:55:07;;;;;;;2.3;1.5;;;;;;;1.31;71.59277;929.9022;;;;
2021/01/02 06:57:32;;;;;;;1.8;1.4;;;;;;;1.31;71.81641;929.8686;;;;
2021/01/02 07:00:00;;;;;;;1.8;1.4;;;;;;;1.42;72.17969;929.8468;;;;
2021/01/02 07:02:27;;;;;;;2.4;1;;;;;;;1.21;72.56836;929.8653;;;;
2021/01/02 07:04:52;;;;;;;5.3;1.4;;;;;;;1.07;72.79102;929.926;;;;
2021/01/02 07:07:19;;;;;;;0.8;0.8;;;;;;;1.13;73.22461;929.9144;;;;
2021/01/02 07:09:44;;;;;;;2.6;1.2;;;;;;;1.2;72.55762;929.9844;;;;
2021/01/02 07:12:09;;;;;;;1.3;1.2;;;;;;;1.13;72.80078;929.908;;;;
2021/01/02 07:14:34;;;;;;;1.7;1;;;;;;;1.2;72.90234;929.9189;;;;
2021/01/02 07:17:04;;;;;;;1;0.9;;;;;;;1.12;73.41309;929.892;;;;
2021/01/02 07:19:30;;;;;;;1.3;1.1;;;;;;;0.89;73.0166;930.025;;;;
2021/01/02 07:21:54;;;;;;;1.6;1.4;;;;;;;0.92;73.53613;929.997;;;;
2021/01/02 07:24:20;;;;;;;1.5;1.2;;;;;;;1.19;72.75488;930.0042;;;;
2021/01/02 07:26:46;;;;;;;1.6;1.2;;;;;;;1.35;71.96777;929.938;;;;
2021/01/02 07:29:11;;;;;;;1.1;1;;;;;;;1.53;71.54004;929.9183;;;;
2021/01/02 07:31:36;;;;;;;2;1.6;;;;;;;1.7;71.61328;929.8789;;;;
2021/01/02 07:34:03;;;;;;;2;1.2;;;;;;;1.69;71.05273;929.9297;;;;
2021/01/02 07:36:27;;;;;;;1.8;1.5;;;;;;;1.7;70.41504;929.9517;;;;
2021/01/02 07:38:52;;;;;;;1.8;1.4;;;;;;;1.84;70.37402;929.9161;;;;
2021/01/02 07:41:17;;;;;;;1.6;1.3;;;;;;;1.86;70.08594;929.9331;;;;
2021/01/02 07:43:42;;;;;;;2.1;1.6;;;;;;;1.92;69.93848;929.8947;;;;
2021/01/02 07:46:09;;;;;;;2.4;1.3;;;;;;;1.9;70.2041;930.0237;;;;
2021/01/02 07:48:34;;;;;;;3.2;1.3;;;;;;;1.72;70.41992;930.0442;;;;
2021/01/02 07:50:59;;;;;;;3.7;2;;;;;;;1.56;71.47754;929.9702;;;;
2021/01/02 07:53:24;;;;;;;1.3;1;;;;;;;2;70.09668;929.9149;;;;
2021/01/02 07:55:52;;;;;;;2.9;1.6;;;;;;;2.23;69.25098;930.0233;;;;
2021/01/02 07:58:17;;;;;;;1.9;1.5;;;;;;;2.1;68.88184;929.9197;;;;
2021/01/02 08:00:43;;;;;;;2.4;1.6;;;;;;;2.4;68.65137;929.957;;;;
2021/01/02 08:03:10;;;;;;;2.8;2;;;;;;;2.54;68.34766;929.9504;;;;
2021/01/02 08:05:37;;;;;;;1.3;1.1;;;;;;;2.71;67.61426;929.8923;;;;
2021/01/02 08:08:02;;;;;;;3.9;1.8;;;;;;;2.63;67.91504;929.8541;;;;
2021/01/02 08:10:28;;;;;;;2.4;1.5;;;;;;;2.8;67.89746;929.8474;;;;
2021/01/02 08:12:56;;;;;;;3;2.1;;;;;;;2.75;67.82129;929.902;;;;
2021/01/02 08:15:21;;;;;;;4.3;2.6;;;;;;;3.05;67.54492;929.8501;;;;
2021/01/02 08:17:43;;;;;;;4.6;2.5;;;;;;;3.17;68.1123;929.9149;;;;
2021/01/02 08:20:13;;;;;;;3.7;2.4;;;;;;;3.13;66.97168;929.895;;;;
2021/01/02 08:22:38;;;;;;;6.2;3.2;;;;;;;3.2;66.61426;929.8649;;;;
2021/01/02 08:25:03;;;;;;;4.4;3.2;;;;;;;2.75;68.74121;929.8391;;;;
2021/01/02 08:27:30;;;;;;;10.1;4.7;;;;;;;2.7;69.2832;929.9211;;;;
2021/01/02 08:29:54;;;;;;;8;4.7;;;;;;;2.72;69.87988;930.02;;;;
2021/01/02 08:32:19;;;;;;;5;3.1;;;;;;;2.88;69.75;930.0329;;;;
2021/01/02 08:34:44;;;;;;;86.4;40.9;;;;;;;2.87;69.4668;929.8934;;;;
2021/01/02 08:37:14;;;;;;;9.9;4.8;;;;;;;2.78;70.43848;929.9316;;;;
2021/01/02 08:39:37;;;;;;;33.4;14.7;;;;;;;2.67;70.0166;929.8088;;;;
2021/01/02 08:42:02;;;;;;;23;12;;;;;;;2.75;70.9834;929.8407;;;;
2021/01/02 08:44:29;;;;;;;5.5;3.2;;;;;;;3.03;69.86328;929.807;;;;
2021/01/02 08:46:54;;;;;;;38.1;17.2;;;;;;;2.99;68.5;929.776;;;;
2021/01/02 08:49:23;;;;;;;59.1;22.9;;;;;;;2.76;68.68652;929.7819;;;;
2021/01/02 08:51:50;;;;;;;69.1;26.9;;;;;;;2.79;69.2627;929.88;;;;
2021/01/02 08:54:20;;;;;;;3.9;2.7;;;;;;;2.61;68.7959;929.9031;;;;
2021/01/02 08:56:45;;;;;;;11.4;5.8;;;;;;;2.97;68.0918;929.8706;;;;
2021/01/02 08:59:10;;;;;;;2.9;2.2;;;;;;;3.18;67.53125;929.9152;;;;
2021/01/02 09:01:39;;;;;;;9.6;5;;;;;;;2.87;65.86816;929.9446;;;;
2021/01/02 09:04:04;;;;;;;2.8;1.9;;;;;;;2.83;66.12012;929.8948;;;;
2021/01/02 09:06:30;;;;;;;3.6;2;;;;;;;2.93;65.68555;929.8563;;;;
2021/01/02 09:08:55;;;;;;;4.8;2.1;;;;;;;2.81;64.78125;929.899;;;;
2021/01/02 09:11:20;;;;;;;3.7;2.4;;;;;;;2.81;65.58789;929.851;;;;
2021/01/02 09:13:45;;;;;;;3.7;1.8;;;;;;;2.95;65.47363;929.7969;;;;
2021/01/02 09:16:11;;;;;;;6.2;3.2;;;;;;;3.07;64.54004;929.8276;;;;
2021/01/02 09:18:39;;;;;;;3.9;1.7;;;;;;;2.89;63.97559;929.8436;;;;
2021/01/02 09:21:04;;;;;;;3.6;2.2;;;;;;;2.47;65.91699;929.8412;;;;
2021/01/02 09:23:31;;;;;;;4.5;2.8;;;;;;;2.28;66.41406;929.8879;;;;
2021/01/02 09:25:56;;;;;;;4.6;2.6;;;;;;;2.39;67.07031;929.8915;;;;
2021/01/02 09:28:21;;;;;;;3.6;1.9;;;;;;;2.4;66.9043;929.8198;;;;
2021/01/02 09:30:49;;;;;;;4.3;2.1;;;;;;;2.5;66.34668;929.9676;;;;
2021/01/02 09:33:14;;;;;;;2.9;1.5;;;;;;;1.97;67.30566;930.0454;;;;
2021/01/02 09:35:41;;;;;;;2.6;1.7;;;;;;;1.81;67.80762;929.9914;;;;
2021/01/02 09:38:06;;;;;;;1.9;1.2;;;;;;;1.72;67.50098;930.0237;;;;
2021/01/02 09:40:38;;;;;;;3;1.5;;;;;;;1.68;68.49023;929.9679;;;;
2021/01/02 09:43:04;;;;;;;2.6;1.2;;;;;;;1.74;68.28809;929.9562;;;;
2021/01/02 09:45:29;;;;;;;2.5;1.4;;;;;;;1.91;68.31543;929.8789;;;;
2021/01/02 09:47:56;;;;;;;3.6;2.1;;;;;;;1.96;68.42383;929.9824;;;;
2021/01/02 09:50:21;;;;;;;3.8;2.1;;;;;;;2.26;67.70996;929.9503;;;;
2021/01/02 09:52:47;;;;;;;1.7;1.3;;;;;;;2.51;66.58398;929.9867;;;;
2021/01/02 09:55:12;;;;;;;2.6;2.1;;;;;;;2.57;65.41797;929.9099;;;;
2021/01/02 09:57:40;;;;;;;2.5;1.8;;;;;;;2.53;65.80371;929.882;;;;
2021/01/02 10:00:06;;;;;;;4.5;2.1;;;;;;;2.74;65.60059;929.8837;;;;
2021/01/02 10:02:32;;;;;;;2.5;1.9;;;;;;;2.9;64.50195;929.8862;;;;
2021/01/02 10:04:57;;;;;;;4.8;2.1;;;;;;;2.99;64.79785;929.8695;;;;
2021/01/02 10:07:23;;;;;;;4.2;2.1;;;;;;;3.26;63.36816;929.8427;;;;
2021/01/02 10:09:48;;;;;;;4.2;2.1;;;;;;;3.28;63.93164;929.6934;;;;
2021/01/02 10:12:14;;;;;;;3.1;2.1;;;;;;;3.42;63.28027;929.7608;;;;
2021/01/02 10:14:39;;;;;;;2.6;1.7;;;;;;;3.64;61.99707;929.7964;;;;
2021/01/02 10:17:04;;;;;;;4.4;2.3;;;;;;;3.51;62.69727;929.7556;;;;
2021/01/02 10:19:30;;;;;;;3.2;1.9;;;;;;;3.53;62.22852;929.7693;;;;
2021/01/02 10:21:56;;;;;;;3;1.9;;;;;;;3.58;62.86523;929.7704;;;;
2021/01/02 10:24:22;;;;;;;3;2;;;;;;;3.68;61.61035;929.6705;;;;
2021/01/02 10:26:47;;;;;;;2.8;1.9;;;;;;;3.81;61.66309;929.7815;;;;
2021/01/02 10:29:13;;;;;;;5.4;2.1;;;;;;;4.15;60.48438;929.6592;;;;
2021/01/02 10:31:39;;;;;;;3.4;1.8;;;;;;;4.31;60.28418;929.6019;;;;
2021/01/02 10:34:05;;;;;;;5.3;2.2;;;;;;;4.47;59.51758;929.6469;;;;
2021/01/02 10:36:30;;;;;;;2.9;1.8;;;;;;;4.64;58.79785;929.5051;;;;
2021/01/02 10:38:55;;;;;;;3;2;;;;;;;4.98;58.18066;929.485;;;;
2021/01/02 10:41:31;;;;;;;4.8;2.3;;;;;;;4.7;58.48047;929.4052;;;;
2021/01/02 10:43:58;;;;;;;6.6;2.5;;;;;;;4.52;59.15332;929.3491;;;;
2021/01/02 10:46:23;;;;;;;7.6;2.4;;;;;;;4.74;58.14844;929.3641;;;;
2021/01/02 10:48:50;;;;;;;4.7;2.5;;;;;;;4.98;57.85352;929.3967;;;;
2021/01/02 10:51:15;;;;;;;4.1;2.3;;;;;;;4.87;58.49219;929.3231;;;;
2021/01/02 10:53:41;;;;;;;4.4;1.8;;;;;;;4.94;58.0957;929.2674;;;;
2021/01/02 10:56:06;;;;;;;4.7;2.4;;;;;;;5.06;58.04395;929.2238;;;;
2021/01/02 10:58:34;;;;;;;9.9;5.3;;;;;;;5.2;57.08301;929.1897;;;;
2021/01/02 11:00:59;;;;;;;4;2.2;;;;;;;4.97;57.1543;929.2048;;;;
2021/01/02 11:03:25;;;;;;;3.3;1.8;;;;;;;4.99;57.61914;929.1878;;;;
2021/01/02 11:05:50;;;;;;;4.4;2.2;;;;;;;5.12;57.14063;929.1103;;;;
2021/01/02 11:08:16;;;;;;;3.8;2.1;;;;;;;5.25;56.90918;929.0376;;;;
2021/01/02 11:10:45;;;;;;;4.5;1.9;;;;;;;5;57.10156;929.0151;;;;
2021/01/02 11:13:12;;;;;;;5.7;2.6;;;;;;;5.15;57.00879;928.9758;;;;
2021/01/02 11:15:37;;;;;;;4;2.1;;;;;;;5.22;56.93945;928.9361;;;;
2021/01/02 11:18:04;;;;;;;3.4;2.3;;;;;;;5.05;57.68262;928.9705;;;;
2021/01/02 11:20:29;;;;;;;2.8;2.2;;;;;;;4.87;57.81738;928.8886;;;;
2021/01/02 11:22:54;;;;;;;4.1;2.6;;;;;;;5.07;57.64063;928.9179;;;;
2021/01/02 11:25:19;;;;;;;3.1;2.2;;;;;;;5.16;57.94531;928.9461;;;;
2021/01/02 11:27:46;;;;;;;6.2;2.6;;;;;;;5.31;56.63574;928.9138;;;;
2021/01/02 11:30:10;;;;;;;3.3;2.2;;;;;;;5.37;56.6543;928.961;;;;
2021/01/02 11:32:35;;;;;;;3.2;2.6;;;;;;;5.13;58.00977;928.9006;;;;
2021/01/02 11:35:01;;;;;;;4.5;2.6;;;;;;;5.22;58.88867;928.873;;;;
2021/01/02 11:37:25;;;;;;;3.8;2.6;;;;;;;5.55;56.84766;928.8611;;;;
2021/01/02 11:39:51;;;;;;;4.6;2.9;;;;;;;5.56;56.17285;928.8367;;;;
2021/01/02 11:42:17;;;;;;;3.7;2.7;;;;;;;5.73;55.95703;928.7696;;;;
2021/01/02 11:44:42;;;;;;;7.6;3.5;;;;;;;5.75;56.0957;928.7391;;;;
2021/01/02 11:47:09;;;;;;;6.3;3.1;;;;;;;5.93;55.79102;928.7307;;;;
2021/01/02 11:49:34;;;;;;;4.6;3.3;;;;;;;5.4;57.52734;928.6512;;;;
2021/01/02 11:51:59;;;;;;;5.2;3.2;;;;;;;5.36;58.84082;928.4897;;;;
2021/01/02 11:54:24;;;;;;;8.7;4.2;;;;;;;5.5;58.69043;928.4302;;;;
2021/01/02 11:56:53;;;;;;;7.7;3.9;;;;;;;5.34;58.97461;928.5045;;;;
2021/01/02 11:59:18;;;;;;;7.6;3.7;;;;;;;5.24;59.87402;928.4772;;;;
2021/01/02 12:01:44;;;;;;;10.2;4.1;;;;;;;5.26;60.06836;928.4765;;;;
2021/01/02 12:04:09;;;;;;;7.1;4.5;;;;;;;5.06;60.72754;928.4523;;;;
2021/01/02 12:06:34;;;;;;;10.9;4.3;;;;;;;5.08;61.02344;928.3453;;;;
2021/01/02 12:08:59;;;;;;;9.4;4.8;;;;;;;5.04;61.14258;928.2453;;;;
2021/01/02 12:11:24;;;;;;;5.8;3.9;;;;;;;4.76;62.05957;928.3149;;;;
2021/01/02 12:13:49;;;;;;;8.7;4.4;;;;;;;4.76;62.00391;928.2203;;;;
2021/01/02 12:16:15;;;;;;;6.4;4.4;;;;;;;4.52;63.02637;928.2211;;;;
2021/01/02 12:18:40;;;;;;;11.1;4.2;;;;;;;4.35;63.37207;928.259;;;;
2021/01/02 12:21:05;;;;;;;10.2;4.2;;;;;;;4.42;63.87891;928.1786;;;;
2021/01/02 12:23:34;;;;;;;10;5.1;;;;;;;4.19;64.27246;928.1522;;;;
2021/01/02 12:25:59;;;;;;;11.7;4.8;;;;;;;3.94;64.81738;928.161;;;;
2021/01/02 12:28:24;;;;;;;9.5;5.5;;;;;;;4.17;64.2793;928.133;;;;
2021/01/02 12:32:05;;;;;;;10.2;4.7;;;;;;;4.15;64.2207;928.1216;;;;
2021/01/02 12:35:15;;;;;;;10.9;5.3;;;;;;;4;65.16602;928.1117;;;;
2021/01/02 12:38:24;;;;;;;12.8;6.2;;;;;;;3.92;65.54688;928.119;;;;
2021/01/02 12:41:33;;;;;;;7.3;5;;;;;;;3.81;65.69922;928.1281;;;;
2021/01/02 12:44:47;;;;;;;7.3;4.6;;;;;;;3.91;65.69141;928.0109;;;;
2021/01/02 12:47:56;;;;;;;7.9;4.9;;;;;;;4.1;65.29199;928.1097;;;;
2021/01/02 12:51:06;;;;;;;9.1;4.7;;;;;;;4.06;65.66895;928.0966;;;;
2021/01/02 12:54:15;;;;;;;10.8;5.2;;;;;;;3.87;65.98828;928.033;;;;
2021/01/02 12:57:23;;;;;;;9;5.3;;;;;;;4.04;66.33008;928.0394;;;;
2021/01/02 13:00:32;;;;;;;10.1;5.1;;;;;;;3.47;67.90332;928.0944;;;;
2021/01/02 13:03:43;;;;;;;9.7;5.2;;;;;;;3.43;68.52539;928.0455;;;;
2021/01/02 13:07:00;;;;;;;11.2;5.5;;;;;;;3.46;68.29492;928.1344;;;;
2021/01/02 13:10:11;;;;;;;10.6;5.7;;;;;;;3.16;69.03125;928.0594;;;;
2021/01/02 13:13:21;;;;;;;14.9;5;;;;;;;3.15;69.66895;928.1189;;;;
2021/01/02 13:16:30;;;;;;;9.1;4.6;;;;;;;3.36;68.44629;928.1092;;;;
2021/01/02 13:19:39;;;;;;;12;5.1;;;;;;;3.46;68.2832;928.1501;;;;
2021/01/02 13:22:50;;;;;;;10.4;5.6;;;;;;;3.47;68.04883;928.0519;;;;
2021/01/02 13:26:02;;;;;;;6.2;4.1;;;;;;;3.19;68.85938;928.0758;;;;
2021/01/02 13:29:11;;;;;;;7.4;4.8;;;;;;;3.21;69.16309;928.0583;;;;
2021/01/02 13:31:45;;;;;;;11.4;4.4;;;;;;;3.21;69.0625;928.093;;;;
2021/01/02 13:34:10;;;;;;;10.2;5.1;;;;;;;3.02;69.43555;928.0754;;;;
2021/01/02 13:36:44;;;;;;;10;5.8;;;;;;;3.06;69.35156;928.0503;;;;
2021/01/02 13:39:08;;;;;;;8.9;4.7;;;;;;;3.04;69.92285;928.0012;;;;
2021/01/02 13:41:44;;;;;;;10.5;5.4;;;;;;;3.56;68.65723;927.9874;;;;
2021/01/02 13:44:11;;;;;;;11.6;5.4;;;;;;;3.85;67.21094;927.9154;;;;
2021/01/02 13:46:44;;;;;;;6.9;4.1;;;;;;;4.33;66.07031;927.9019;;;;
2021/01/02 13:49:17;;;;;;;8.9;4.5;;;;;;;4.35;65.53516;927.8809;;;;
2021/01/02 13:51:50;;;;;;;11.6;5.4;;;;;;;4.66;64.21777;927.8663;;;;
2021/01/02 13:54:15;;;;;;;13.1;6.1;;;;;;;4.76;63.41016;927.8338;;;;
2021/01/02 13:56:48;;;;;;;9.3;4.6;;;;;;;4.13;64.69141;927.8961;;;;
2021/01/02 13:59:13;;;;;;;10.7;5.8;;;;;;;3.49;67.7168;927.8918;;;;
2021/01/02 14:01:38;;;;;;;9.3;5.3;;;;;;;3.96;66.7334;927.8937;;;;
2021/01/02 14:04:11;;;;;;;8.9;5.6;;;;;;;3.75;66.94727;927.8992;;;;
2021/01/02 14:06:44;;;;;;;9.5;4.8;;;;;;;3.93;66.77246;927.8986;;;;
2021/01/02 14:09:10;;;;;;;8;4.6;;;;;;;3.88;66.84375;927.8647;;;;
2021/01/02 14:11:43;;;;;;;8.5;5.2;;;;;;;3.51;67.93164;927.8811;;;;
2021/01/02 14:14:16;;;;;;;8.8;3.9;;;;;;;3.55;68.04004;927.804;;;;
2021/01/02 14:16:49;;;;;;;9;5.3;;;;;;;3.7;67.49023;927.762;;;;
2021/01/02 14:19:23;;;;;;;9.4;5.4;;;;;;;3.43;68.07715;927.6783;;;;
2021/01/02 14:21:49;;;;;;;8.8;4.9;;;;;;;3.28;68.85938;927.7434;;;;
2021/01/02 14:24:14;;;;;;;10.1;5;;;;;;;3.22;68.97363;927.8052;;;;
2021/01/02 14:26:46;;;;;;;10;4.6;;;;;;;3.31;68.79785;927.7598;;;;
2021/01/02 14:29:18;;;;;;;9.5;5.1;;;;;;;3.18;68.81152;927.7469;;;;
2021/01/02 14:31:51;;;;;;;11;4.6;;;;;;;2.96;69.90918;927.7303;;;;
2021/01/02 14:34:24;;;;;;;8.7;4.9;;;;;;;3.01;69.98242;927.7355;;;;
2021/01/02 14:36:55;;;;;;;7.9;4.7;;;;;;;3.01;70.00586;927.6735;;;;
2021/01/02 14:39:28;;;;;;;8.7;4.5;;;;;;;2.89;70.08789;927.7722;;;;
2021/01/02 14:41:59;;;;;;;11.1;4.4;;;;;;;2.73;71.08301;927.7379;;;;
2021/01/02 14:44:31;;;;;;;7.2;4.8;;;;;;;2.88;70.61328;927.7327;;;;
2021/01/02 14:47:03;;;;;;;12.5;5.5;;;;;;;2.83;70.7168;927.778;;;;
2021/01/02 14:49:35;;;;;;;9.6;5.6;;;;;;;2.87;70.45313;927.7567;;;;